sensor_id;sensor_type;location;lat;lon;timestamp;P1;durP1;ratioP1;P2;durP2;ratioP2
65086;SDS011;52094;51.234;-2.310;2022-07-12T00:02:58;4.20;;;2.00;;
65086;SDS011;52094;51.234;-2.310;2022-07-12T00:07:03;3.85;;;2.13;;
65086;SDS011;52094;51.234;-2.310;2022-07-12T00:10:59;4.38;;;2.03;;
65086;SDS011;52094;51.234;-2.310;2022-07-12T00:14:41;3.85;;;2.00;;
65086;SDS011;52094;51.234;-2.310;2022-07-12T00:18:30;4.00;;;2.20;;
65086;SDS011;52094;51.234;-2.310;2022-07-12T00:22:38;5.32;;;2.85;;
65086;SDS011;52094;51.234;-2.310;2022-07-12T00:31:51;4.40;;;2.50;;
65086;SDS011;52094;51.234;-2.310;2022-07-12T00:36:23;6.50;;;2.85;;
65086;SDS011;52094;51.234;-2.310;2022-07-12T00:40:41;4.00;;;2.47;;
65086;SDS011;52094;51.234;-2.310;2022-07-12T00:44:43;5.38;;;2.60;;
65086;SDS011;52094;51.234;-2.310;2022-07-12T00:48:37;4.55;;;2.50;;
65086;SDS011;52094;51.234;-2.310;2022-07-12T00:52:40;5.40;;;3.70;;
65086;SDS011;52094;51.234;-2.310;2022-07-12T00:57:45;5.10;;;2.50;;
65086;SDS011;52094;51.234;-2.310;2022-07-12T01:02:20;4.50;;;2.58;;
65086;SDS011;52094;51.234;-2.310;2022-07-12T01:06:32;4.82;;;2.47;;
65086;SDS011;52094;51.234;-2.310;2022-07-12T01:10:22;4.90;;;2.03;;
65086;SDS011;52094;51.234;-2.310;2022-07-12T01:14:25;4.03;;;2.35;;
65086;SDS011;52094;51.234;-2.310;2022-07-12T01:23:20;4.38;;;2.30;;
65086;SDS011;52094;51.234;-2.310;2022-07-12T01:28:06;5.47;;;2.60;;
65086;SDS011;52094;51.234;-2.310;2022-07-12T01:38:07;4.32;;;2.15;;
65086;SDS011;52094;51.234;-2.310;2022-07-12T01:47:01;6.07;;;2.63;;
65086;SDS011;52094;51.234;-2.310;2022-07-12T01:51:03;3.75;;;2.25;;
65086;SDS011;52094;51.234;-2.310;2022-07-12T01:55:26;3.97;;;2.13;;
65086;SDS011;52094;51.234;-2.310;2022-07-12T01:59:16;3.45;;;1.98;;
65086;SDS011;52094;51.234;-2.310;2022-07-12T02:03:22;3.85;;;1.85;;
65086;SDS011;52094;51.234;-2.310;2022-07-12T02:07:15;3.90;;;2.10;;
65086;SDS011;52094;51.234;-2.310;2022-07-12T02:11:15;4.90;;;2.15;;
65086;SDS011;52094;51.234;-2.310;2022-07-12T02:14:58;4.05;;;2.13;;
65086;SDS011;52094;51.234;-2.310;2022-07-12T02:18:43;5.07;;;2.85;;
65086;SDS011;52094;51.234;-2.310;2022-07-12T02:22:37;4.90;;;2.72;;
65086;SDS011;52094;51.234;-2.310;2022-07-12T02:26:32;5.30;;;2.80;;
65086;SDS011;52094;51.234;-2.310;2022-07-12T02:30:16;5.85;;;2.92;;
65086;SDS011;52094;51.234;-2.310;2022-07-12T02:34:05;5.82;;;3.10;;
65086;SDS011;52094;51.234;-2.310;2022-07-12T02:38:07;5.93;;;2.75;;
65086;SDS011;52094;51.234;-2.310;2022-07-12T02:42:18;8.88;;;2.97;;
65086;SDS011;52094;51.234;-2.310;2022-07-12T02:46:15;5.72;;;2.72;;
65086;SDS011;52094;51.234;-2.310;2022-07-12T02:49:58;5.18;;;2.67;;
65086;SDS011;52094;51.234;-2.310;2022-07-12T02:53:58;4.82;;;2.42;;
65086;SDS011;52094;51.234;-2.310;2022-07-12T03:07:23;3.60;;;1.65;;
65086;SDS011;52094;51.234;-2.310;2022-07-12T03:20:25;4.13;;;1.92;;
65086;SDS011;52094;51.234;-2.310;2022-07-12T03:25:26;2.97;;;1.60;;
65086;SDS011;52094;51.234;-2.310;2022-07-12T03:29:48;3.22;;;1.50;;
65086;SDS011;52094;51.234;-2.310;2022-07-12T03:34:08;3.67;;;2.08;;
65086;SDS011;52094;51.234;-2.310;2022-07-12T03:38:02;5.03;;;2.33;;
65086;SDS011;52094;51.234;-2.310;2022-07-12T03:42:07;5.55;;;2.33;;
65086;SDS011;52094;51.234;-2.310;2022-07-12T03:50:53;4.78;;;2.53;;
65086;SDS011;52094;51.234;-2.310;2022-07-12T03:58:40;5.22;;;2.40;;
65086;SDS011;52094;51.234;-2.310;2022-07-12T04:03:17;4.80;;;2.25;;
65086;SDS011;52094;51.234;-2.310;2022-07-12T04:08:25;3.80;;;2.00;;
65086;SDS011;52094;51.234;-2.310;2022-07-12T04:12:45;3.17;;;2.00;;
65086;SDS011;52094;51.234;-2.310;2022-07-12T04:16:47;4.10;;;1.98;;
65086;SDS011;52094;51.234;-2.310;2022-07-12T04:20:33;4.23;;;2.27;;
65086;SDS011;52094;51.234;-2.310;2022-07-12T04:24:33;3.63;;;2.20;;
65086;SDS011;52094;51.234;-2.310;2022-07-12T04:32:57;3.95;;;2.20;;
65086;SDS011;52094;51.234;-2.310;2022-07-12T04:37:09;4.72;;;2.05;;
65086;SDS011;52094;51.234;-2.310;2022-07-12T04:40:56;4.72;;;2.42;;
65086;SDS011;52094;51.234;-2.310;2022-07-12T04:59:39;4.25;;;2.30;;
65086;SDS011;52094;51.234;-2.310;2022-07-12T05:03:49;3.72;;;1.92;;
65086;SDS011;52094;51.234;-2.310;2022-07-12T05:08:13;3.80;;;1.98;;
65086;SDS011;52094;51.234;-2.310;2022-07-12T05:22:04;4.82;;;2.42;;
65086;SDS011;52094;51.234;-2.310;2022-07-12T05:26:03;4.00;;;2.17;;
65086;SDS011;52094;51.234;-2.310;2022-07-12T09:39:04;3.90;;;1.30;;
65086;SDS011;52094;51.234;-2.310;2022-07-12T09:47:31;3.28;;;1.40;;
65086;SDS011;52094;51.234;-2.310;2022-07-12T09:51:15;4.05;;;1.58;;
65086;SDS011;52094;51.234;-2.310;2022-07-12T09:59:27;3.03;;;1.50;;
65086;SDS011;52094;51.234;-2.310;2022-07-12T10:08:24;2.80;;;1.33;;
65086;SDS011;52094;51.234;-2.310;2022-07-12T10:12:28;4.57;;;1.60;;
65086;SDS011;52094;51.234;-2.310;2022-07-12T10:41:18;5.03;;;1.40;;
65086;SDS011;52094;51.234;-2.310;2022-07-12T10:45:14;3.67;;;1.50;;
65086;SDS011;52094;51.234;-2.310;2022-07-12T10:49:22;3.92;;;1.30;;
65086;SDS011;52094;51.234;-2.310;2022-07-12T10:53:23;3.95;;;1.33;;
65086;SDS011;52094;51.234;-2.310;2022-07-12T10:57:16;4.38;;;1.50;;
65086;SDS011;52094;51.234;-2.310;2022-07-12T11:00:59;5.13;;;1.60;;
65086;SDS011;52094;51.234;-2.310;2022-07-12T11:04:47;3.88;;;1.42;;
65086;SDS011;52094;51.234;-2.310;2022-07-12T11:08:30;4.35;;;1.17;;
65086;SDS011;52094;51.234;-2.310;2022-07-12T11:12:42;3.25;;;1.20;;
65086;SDS011;52094;51.234;-2.310;2022-07-12T11:21:26;2.88;;;1.05;;
65086;SDS011;52094;51.234;-2.310;2022-07-12T11:25:17;1.80;;;1.10;;
65086;SDS011;52094;51.234;-2.310;2022-07-12T11:29:00;1.67;;;1.02;;
65086;SDS011;52094;51.234;-2.310;2022-07-12T11:32:57;0.93;;;0.80;;
65086;SDS011;52094;51.234;-2.310;2022-07-12T11:36:41;1.65;;;1.00;;
65086;SDS011;52094;51.234;-2.310;2022-07-12T11:40:24;1.50;;;1.00;;
65086;SDS011;52094;51.234;-2.310;2022-07-12T11:44:14;1.58;;;0.85;;
65086;SDS011;52094;51.234;-2.310;2022-07-12T11:48:03;2.20;;;1.20;;
65086;SDS011;52094;51.234;-2.310;2022-07-12T11:51:59;2.00;;;1.02;;
65086;SDS011;52094;51.234;-2.310;2022-07-12T11:55:42;1.98;;;0.90;;
65086;SDS011;52094;51.234;-2.310;2022-07-12T11:59:26;2.17;;;1.00;;
65086;SDS011;52094;51.234;-2.310;2022-07-12T12:03:09;1.65;;;0.93;;
65086;SDS011;52094;51.234;-2.310;2022-07-12T12:06:54;2.35;;;1.10;;
65086;SDS011;52094;51.234;-2.310;2022-07-12T12:10:56;1.70;;;0.90;;
65086;SDS011;52094;51.234;-2.310;2022-07-12T12:14:43;2.65;;;1.08;;
65086;SDS011;52094;51.234;-2.310;2022-07-12T12:22:38;3.03;;;1.13;;
65086;SDS011;52094;51.234;-2.310;2022-07-12T12:26:24;3.28;;;1.15;;
65086;SDS011;52094;51.234;-2.310;2022-07-12T12:30:12;2.83;;;1.02;;
65086;SDS011;52094;51.234;-2.310;2022-07-12T12:38:01;1.85;;;1.10;;
65086;SDS011;52094;51.234;-2.310;2022-07-12T12:42:04;1.75;;;0.90;;
65086;SDS011;52094;51.234;-2.310;2022-07-12T12:45:55;2.30;;;0.90;;
65086;SDS011;52094;51.234;-2.310;2022-07-12T12:49:46;2.70;;;1.00;;
65086;SDS011;52094;51.234;-2.310;2022-07-12T12:53:54;1.30;;;0.85;;
65086;SDS011;52094;51.234;-2.310;2022-07-12T12:58:17;2.63;;;1.10;;
65086;SDS011;52094;51.234;-2.310;2022-07-12T13:12:08;3.05;;;1.00;;
65086;SDS011;52094;51.234;-2.310;2022-07-12T13:15:51;1.15;;;0.88;;
65086;SDS011;52094;51.234;-2.310;2022-07-12T13:20:03;2.40;;;1.00;;
65086;SDS011;52094;51.234;-2.310;2022-07-12T13:23:48;3.95;;;1.10;;
65086;SDS011;52094;51.234;-2.310;2022-07-12T13:28:04;2.65;;;0.95;;
65086;SDS011;52094;51.234;-2.310;2022-07-12T13:32:29;1.95;;;1.00;;
65086;SDS011;52094;51.234;-2.310;2022-07-12T13:36:55;2.45;;;0.90;;
65086;SDS011;52094;51.234;-2.310;2022-07-12T13:46:43;2.92;;;1.20;;
65086;SDS011;52094;51.234;-2.310;2022-07-12T13:51:01;2.80;;;1.00;;
65086;SDS011;52094;51.234;-2.310;2022-07-12T13:55:16;2.95;;;0.93;;
65086;SDS011;52094;51.234;-2.310;2022-07-12T13:59:20;1.65;;;1.00;;
65086;SDS011;52094;51.234;-2.310;2022-07-12T14:11:57;1.50;;;0.82;;
65086;SDS011;52094;51.234;-2.310;2022-07-12T14:16:02;3.90;;;1.08;;
65086;SDS011;52094;51.234;-2.310;2022-07-12T14:19:56;2.45;;;1.20;;
65086;SDS011;52094;51.234;-2.310;2022-07-12T14:37:12;3.55;;;1.25;;
65086;SDS011;52094;51.234;-2.310;2022-07-12T14:51:13;2.33;;;1.20;;
65086;SDS011;52094;51.234;-2.310;2022-07-12T14:55:21;2.35;;;1.10;;
65086;SDS011;52094;51.234;-2.310;2022-07-12T15:42:25;2.17;;;1.13;;
65086;SDS011;52094;51.234;-2.310;2022-07-12T16:32:12;3.00;;;1.27;;
65086;SDS011;52094;51.234;-2.310;2022-07-12T16:36:40;2.53;;;1.23;;
